createdAt,value
2024-04-19T00:00:55.625Z,1.58
2024-04-19T00:03:25.043Z,2.42
2024-04-19T00:05:53.013Z,2.67
2024-04-19T00:08:33.085Z,2.15
2024-04-19T00:11:00.931Z,2.63
2024-04-19T00:13:29.198Z,2.05
2024-04-19T00:15:59.835Z,3.42
2024-04-19T00:18:28.703Z,3.10
2024-04-19T00:20:57.814Z,3.13
2024-04-19T00:23:26.170Z,2.33
2024-04-19T00:25:55.083Z,2.40
2024-04-19T00:28:39.131Z,2.08
2024-04-19T00:31:07.388Z,2.58
2024-04-19T00:33:37.011Z,1.63
2024-04-19T00:36:05.669Z,1.60
2024-04-19T00:38:33.740Z,2.03
2024-04-19T00:41:01.572Z,2.58
2024-04-19T00:43:29.518Z,2.95
2024-04-19T00:45:57.558Z,2.70
2024-04-19T00:48:27.902Z,2.33
2024-04-19T00:50:59.058Z,2.00
2024-04-19T00:53:32.941Z,2.83
2024-04-19T00:56:20.761Z,2.42
2024-04-19T00:58:49.165Z,2.85
2024-04-19T01:01:17.720Z,2.97
2024-04-19T01:03:45.943Z,3.17
2024-04-19T01:06:13.921Z,1.73
2024-04-19T01:08:41.767Z,5.45
2024-04-19T01:11:29.721Z,1.95
2024-04-19T01:13:57.792Z,2.55
2024-04-19T01:16:25.677Z,4.80
2024-04-19T01:18:53.642Z,2.85
2024-04-19T01:21:23.822Z,3.03
2024-04-19T01:23:57.670Z,2.75
2024-04-19T01:26:25.491Z,1.50
2024-04-19T01:28:53.211Z,3.75
2024-04-19T01:31:20.956Z,3.42
2024-04-19T01:33:48.853Z,2.75
2024-04-19T01:36:16.589Z,1.77
2024-04-19T01:38:50.010Z,2.28
2024-04-19T01:41:17.902Z,2.15
2024-04-19T01:43:46.147Z,2.15
2024-04-19T01:46:13.872Z,2.90
2024-04-19T01:48:41.694Z,1.40
2024-04-19T01:51:09.395Z,2.88
2024-04-19T01:53:37.121Z,1.85
2024-04-19T01:56:05.324Z,2.05
2024-04-19T01:58:42.324Z,1.65
2024-04-19T02:01:10.459Z,2.20
2024-04-19T02:03:41.367Z,2.60
2024-04-19T02:06:14.109Z,1.75
2024-04-19T02:08:43.539Z,2.05
2024-04-19T02:11:11.558Z,2.45
2024-04-19T02:13:40.639Z,1.83
2024-04-19T02:16:08.458Z,1.60
2024-04-19T02:18:36.548Z,1.98
2024-04-19T02:21:04.985Z,1.20
2024-04-19T02:23:39.026Z,2.50
2024-04-19T02:26:10.778Z,1.50
2024-04-19T02:28:59.108Z,1.75
2024-04-19T02:31:27.933Z,1.15
2024-04-19T02:33:55.895Z,1.77
2024-04-19T02:36:24.001Z,1.30
2024-04-19T02:38:51.797Z,1.85
2024-04-19T02:41:19.567Z,2.90
2024-04-19T02:43:48.586Z,3.10
2024-04-19T02:46:18.445Z,1.80
2024-04-19T02:48:47.792Z,3.20
2024-04-19T02:51:15.921Z,1.85
2024-04-19T02:53:48.459Z,1.90
2024-04-19T02:56:16.445Z,1.75
2024-04-19T02:58:44.177Z,1.45
2024-04-19T03:01:11.930Z,1.55
2024-04-19T03:03:39.996Z,1.30
2024-04-19T03:06:08.306Z,3.40
2024-04-19T03:08:36.078Z,3.05
2024-04-19T03:11:07.364Z,2.03
2024-04-19T03:13:35.199Z,1.92
2024-04-19T03:16:10.621Z,1.77
2024-04-19T03:18:42.611Z,2.08
2024-04-19T03:21:10.748Z,3.50
2024-04-19T03:23:38.517Z,3.78
2024-04-19T03:26:07.573Z,2.75
2024-04-19T03:28:35.310Z,3.80
2024-04-19T03:31:03.219Z,3.72
2024-04-19T03:33:31.046Z,2.17
2024-04-19T03:35:59.275Z,1.80
2024-04-19T03:38:26.987Z,1.70
2024-04-19T03:40:55.635Z,2.63
2024-04-19T03:43:25.144Z,2.20
2024-04-19T03:45:53.745Z,3.60
2024-04-19T03:48:21.718Z,4.35
2024-04-19T03:50:49.936Z,2.13
2024-04-19T03:53:17.672Z,2.20
2024-04-19T03:55:45.421Z,3.78
2024-04-19T03:58:13.259Z,1.90
2024-04-19T04:00:41.254Z,3.30
2024-04-19T04:03:09.370Z,1.90
2024-04-19T04:05:41.165Z,2.63
2024-04-19T04:08:08.993Z,2.47
2024-04-19T04:10:37.286Z,2.05
2024-04-19T04:13:05.371Z,2.35
2024-04-19T04:15:33.813Z,1.80
2024-04-19T04:18:03.787Z,5.65
2024-04-19T04:20:32.610Z,2.28
2024-04-19T04:23:01.321Z,2.80
2024-04-19T04:25:29.092Z,3.85
2024-04-19T04:27:57.029Z,1.30
2024-04-19T04:30:24.914Z,1.67
2024-04-19T04:32:52.716Z,1.98
2024-04-19T04:35:20.489Z,2.13
2024-04-19T04:37:48.225Z,2.42
2024-04-19T04:40:16.068Z,2.90
2024-04-19T04:42:46.775Z,4.72
2024-04-19T04:45:14.719Z,2.05
2024-04-19T04:47:42.589Z,1.73
2024-04-19T04:50:11.442Z,1.95
2024-04-19T04:52:39.110Z,3.28
2024-04-19T04:55:08.247Z,3.80
2024-04-19T04:57:39.479Z,2.70
2024-04-19T05:00:09.433Z,3.15
2024-04-19T05:02:37.256Z,2.50
2024-04-19T05:05:05.624Z,2.28
2024-04-19T05:07:33.414Z,1.70
2024-04-19T05:10:01.219Z,2.08
2024-04-19T05:12:30.373Z,1.40
2024-04-19T05:14:58.270Z,3.33
2024-04-19T05:17:26.019Z,1.15
2024-04-19T05:19:53.742Z,3.90
2024-04-19T05:22:21.474Z,1.63
2024-04-19T05:24:49.920Z,2.58
2024-04-19T05:27:17.865Z,2.75
2024-04-19T05:29:45.646Z,1.58
2024-04-19T05:32:13.477Z,2.70
2024-04-19T05:34:43.482Z,1.52
2024-04-19T05:37:11.225Z,3.00
2024-04-19T05:39:39.059Z,2.55
2024-04-19T05:42:07.067Z,2.30
2024-04-19T05:44:34.851Z,1.80
2024-04-19T05:47:02.810Z,4.85
2024-04-19T05:49:30.707Z,1.95
2024-04-19T05:51:58.604Z,1.67
2024-04-19T05:54:26.391Z,2.33
2024-04-19T05:56:54.181Z,2.33
2024-04-19T05:59:21.944Z,1.65
2024-04-19T06:01:49.810Z,1.08
2024-04-19T06:04:35.884Z,1.60
2024-04-19T06:07:03.842Z,2.80
2024-04-19T06:09:31.776Z,1.38
2024-04-19T06:12:02.803Z,1.58
2024-04-19T06:14:30.772Z,1.63
2024-04-19T06:16:58.673Z,1.67
2024-04-19T06:19:26.542Z,2.08
2024-04-19T06:21:57.268Z,0.95
2024-04-19T06:24:25.759Z,0.85
2024-04-19T06:26:53.638Z,1.70
2024-04-19T06:29:21.340Z,1.33
2024-04-19T06:31:49.141Z,2.30
2024-04-19T06:34:17.173Z,1.23
2024-04-19T06:36:44.942Z,1.83
2024-04-19T06:39:27.845Z,2.88
2024-04-19T06:41:56.141Z,0.73
2024-04-19T06:44:24.018Z,0.73
2024-04-19T06:46:51.762Z,1.02
2024-04-19T06:49:21.019Z,1.52
2024-04-19T06:51:50.135Z,2.13
2024-04-19T06:54:17.894Z,0.68
2024-04-19T06:56:46.059Z,0.98
2024-04-19T06:59:14.457Z,2.13
2024-04-19T07:01:42.476Z,1.08
2024-04-19T07:04:10.319Z,1.73
2024-04-19T07:06:41.954Z,0.77
2024-04-19T07:09:13.724Z,1.48
2024-04-19T07:11:42.033Z,3.22
2024-04-19T07:14:09.918Z,3.45
2024-04-19T07:16:39.026Z,2.15
2024-04-19T07:19:06.921Z,0.98
2024-04-19T07:21:34.853Z,0.63
2024-04-19T07:24:02.611Z,0.90
2024-04-19T07:26:30.456Z,0.85
2024-04-19T07:29:01.432Z,0.80
2024-04-19T07:31:29.333Z,1.70
2024-04-19T07:33:57.170Z,1.55
2024-04-19T07:36:25.633Z,0.98
2024-04-19T07:38:53.965Z,1.45
2024-04-19T07:41:21.776Z,1.60
2024-04-19T07:43:53.102Z,8.43
2024-04-19T07:46:23.973Z,2.33
2024-04-19T07:48:51.879Z,3.05
2024-04-19T07:51:19.747Z,1.15
2024-04-19T07:53:47.459Z,2.25
2024-04-19T07:56:15.327Z,0.85
2024-04-19T07:58:45.014Z,1.45
2024-04-19T08:01:13.024Z,1.40
2024-04-19T08:03:41.095Z,1.33
2024-04-19T08:06:09.777Z,2.22
2024-04-19T08:08:37.519Z,0.98
2024-04-19T08:11:05.374Z,0.68
2024-04-19T08:13:33.147Z,0.63
2024-04-19T08:16:01.602Z,1.35
2024-04-19T08:18:29.672Z,1.88
2024-04-19T08:20:57.522Z,0.70
2024-04-19T08:23:26.865Z,1.00
2024-04-19T08:25:54.750Z,0.95
2024-04-19T08:28:26.739Z,1.40
2024-04-19T08:30:54.801Z,1.23
2024-04-19T08:33:22.955Z,1.20
2024-04-19T08:36:00.389Z,6.03
2024-04-19T08:38:29.242Z,1.65
2024-04-19T08:41:03.799Z,1.67
2024-04-19T08:43:37.081Z,0.65
2024-04-19T08:46:06.257Z,2.90
2024-04-19T08:48:37.500Z,1.08
2024-04-19T08:51:07.032Z,2.50
2024-04-19T08:53:35.013Z,1.48
2024-04-19T08:56:05.390Z,1.67
2024-04-19T08:58:36.394Z,1.30
2024-04-19T09:01:04.370Z,1.20
2024-04-19T09:03:32.213Z,1.55
2024-04-19T09:06:00.975Z,1.95
2024-04-19T09:08:30.331Z,3.65
2024-04-19T09:10:58.287Z,1.30
2024-04-19T09:13:26.121Z,1.17
2024-04-19T09:15:57.407Z,0.80
2024-04-19T09:18:25.812Z,0.80
2024-04-19T09:20:53.618Z,1.23
2024-04-19T09:23:21.977Z,1.35
2024-04-19T09:25:57.279Z,1.60
2024-04-19T09:28:26.101Z,1.13
2024-04-19T09:30:54.128Z,0.93
2024-04-19T09:33:23.832Z,0.50
2024-04-19T09:35:52.950Z,1.75
2024-04-19T09:38:21.463Z,1.80
2024-04-19T09:40:50.220Z,0.90
2024-04-19T09:43:23.360Z,1.48
2024-04-19T09:45:57.834Z,1.15
2024-04-19T09:48:31.403Z,2.90
2024-04-19T09:51:01.271Z,0.60
2024-04-19T09:53:34.311Z,0.82
2024-04-19T09:56:07.803Z,1.13
2024-04-19T09:58:39.380Z,2.13
2024-04-19T10:01:07.216Z,1.13
2024-04-19T10:03:37.326Z,1.48
2024-04-19T10:06:07.236Z,1.13
2024-04-19T10:08:36.496Z,2.65
2024-04-19T10:11:05.683Z,0.50
2024-04-19T10:13:33.707Z,0.63
2024-04-19T10:16:01.517Z,2.50
2024-04-19T10:18:29.490Z,0.73
2024-04-19T10:20:57.445Z,2.45
2024-04-19T10:23:27.567Z,1.92
2024-04-19T10:25:59.656Z,0.32
2024-04-19T10:28:31.339Z,0.75
2024-04-19T10:31:06.302Z,0.50
2024-04-19T10:33:34.962Z,1.10
2024-04-19T10:36:05.524Z,1.52
2024-04-19T10:38:34.891Z,0.55
2024-04-19T10:41:02.620Z,1.20
2024-04-19T10:43:31.583Z,2.25
2024-04-19T10:45:59.687Z,0.82
2024-04-19T10:48:29.165Z,0.90
2024-04-19T10:51:04.500Z,0.70
2024-04-19T10:53:32.451Z,5.55
2024-04-19T10:56:00.304Z,1.60
2024-04-19T10:58:28.491Z,5.25
2024-04-19T11:00:56.359Z,0.88
2024-04-19T11:03:25.394Z,1.30
2024-04-19T11:05:54.300Z,3.70
2024-04-19T11:08:23.730Z,0.82
2024-04-19T11:10:52.421Z,0.60
2024-04-19T11:13:21.315Z,3.80
2024-04-19T11:15:56.950Z,1.88
2024-04-19T11:18:29.817Z,1.10
2024-04-19T11:21:05.316Z,1.65
2024-04-19T11:23:37.066Z,0.57
2024-04-19T11:26:04.941Z,0.90
2024-04-19T11:28:32.769Z,0.45
2024-04-19T11:31:08.371Z,4.38
2024-04-19T11:33:36.282Z,1.17
2024-04-19T11:36:10.129Z,0.40
2024-04-19T11:38:37.974Z,1.40
2024-04-19T11:41:05.780Z,0.82
2024-04-19T11:43:33.630Z,0.30
2024-04-19T11:46:01.850Z,0.50
2024-04-19T11:48:30.292Z,2.03
2024-04-19T11:50:59.181Z,0.93
2024-04-19T11:53:27.018Z,0.80
2024-04-19T11:55:56.148Z,1.00
2024-04-19T11:58:24.157Z,4.07
2024-04-19T12:00:51.987Z,1.33
2024-04-19T12:03:20.192Z,1.42
2024-04-19T12:05:47.973Z,1.15
2024-04-19T12:08:15.814Z,11.25
2024-04-19T12:10:43.974Z,2.15
2024-04-19T12:13:51.021Z,2.80
2024-04-19T12:16:31.289Z,2.40
2024-04-19T12:18:47.769Z,0.60
2024-04-19T12:21:17.643Z,1.40
2024-04-19T12:23:47.465Z,2.08
2024-04-19T12:26:19.254Z,0.93
2024-04-19T12:28:54.395Z,0.45
2024-04-19T12:31:26.753Z,0.70
2024-04-19T12:33:54.809Z,0.82
2024-04-19T12:36:22.688Z,2.95
2024-04-19T12:38:51.043Z,0.80
2024-04-19T12:41:19.143Z,1.52
2024-04-19T12:43:49.090Z,4.32
2024-04-19T12:46:17.365Z,21.50
2024-04-19T12:48:46.430Z,6.60
2024-04-19T12:51:14.910Z,2.00
2024-04-19T12:53:46.699Z,1.23
2024-04-19T12:56:14.529Z,1.77
2024-04-19T12:58:43.144Z,4.47
2024-04-19T13:01:11.127Z,7.30
2024-04-19T13:03:39.430Z,1.40
2024-04-19T13:06:08.403Z,2.83
2024-04-19T13:08:37.172Z,1.83
2024-04-19T13:11:05.457Z,2.25
2024-04-19T13:13:58.123Z,4.40
2024-04-19T13:16:26.661Z,1.75
2024-04-19T13:18:55.063Z,1.05
2024-04-19T13:21:28.890Z,2.83
2024-04-19T13:23:57.429Z,4.45
2024-04-19T13:26:26.220Z,2.83
2024-04-19T13:28:57.738Z,4.90
2024-04-19T13:31:25.755Z,2.80
2024-04-19T13:33:53.828Z,14.75
2024-04-19T13:36:22.073Z,3.80
2024-04-19T13:38:49.867Z,8.35
2024-04-19T13:41:17.728Z,4.97
2024-04-19T13:43:45.785Z,4.55
2024-04-19T13:46:14.098Z,6.22
2024-04-19T13:48:42.052Z,2.33
2024-04-19T13:51:10.354Z,3.45
2024-04-19T13:53:42.885Z,4.43
2024-04-19T13:56:15.271Z,1.85
2024-04-19T13:58:43.312Z,1.63
2024-04-19T14:01:16.824Z,1.40
2024-04-19T14:03:45.357Z,3.55
2024-04-19T14:06:13.242Z,2.53
2024-04-19T14:08:41.491Z,1.35
2024-04-19T14:11:09.437Z,1.67
2024-04-19T14:13:37.213Z,1.38
2024-04-19T14:16:05.356Z,2.50
2024-04-19T14:18:33.552Z,2.22
2024-04-19T14:21:01.639Z,1.90
2024-04-19T14:23:30.605Z,2.28
2024-04-19T14:25:58.635Z,2.95
2024-04-19T14:28:26.487Z,2.88
2024-04-19T14:30:54.534Z,1.80
2024-04-19T14:33:22.319Z,2.00
2024-04-19T14:35:50.139Z,1.88
2024-04-19T14:38:17.787Z,2.22
2024-04-19T14:40:45.571Z,2.10
2024-04-19T14:43:13.401Z,3.22
2024-04-19T14:45:41.220Z,2.97
2024-04-19T14:48:09.152Z,3.03
2024-04-19T14:50:36.978Z,3.50
2024-04-19T14:53:10.166Z,13.50
2024-04-19T14:55:38.845Z,5.25
2024-04-19T14:58:06.708Z,1.95
2024-04-19T15:00:34.764Z,17.50
2024-04-19T15:03:02.663Z,4.80
2024-04-19T15:05:31.332Z,8.88
2024-04-19T15:08:00.704Z,6.65
2024-04-19T15:10:28.502Z,1.83
2024-04-19T15:12:56.423Z,2.42
2024-04-19T15:15:24.538Z,1.77
2024-04-19T15:17:54.496Z,2.83
2024-04-19T15:20:22.246Z,2.65
2024-04-19T15:22:50.488Z,2.50
2024-04-19T15:25:18.296Z,2.70
2024-04-19T15:27:46.177Z,1.33
2024-04-19T15:30:14.083Z,2.28
2024-04-19T15:32:42.297Z,2.50
2024-04-19T15:35:11.551Z,2.60
2024-04-19T15:37:39.544Z,3.28
2024-04-19T15:40:08.190Z,2.28
2024-04-19T15:42:35.981Z,1.67
2024-04-19T15:45:04.252Z,2.03
2024-04-19T15:47:32.391Z,2.80
2024-04-19T15:50:01.041Z,8.07
2024-04-19T15:52:28.811Z,6.80
2024-04-19T15:54:56.762Z,3.25
2024-04-19T15:57:24.802Z,5.35
2024-04-19T15:59:52.712Z,2.45
2024-04-19T16:02:20.458Z,2.15
2024-04-19T16:04:48.266Z,2.25
2024-04-19T16:07:16.118Z,3.35
2024-04-19T16:09:44.197Z,3.10
2024-04-19T16:12:12.573Z,5.78
2024-04-19T16:14:40.426Z,1.50
2024-04-19T16:17:08.362Z,2.90
2024-04-19T16:19:36.196Z,2.15
2024-04-19T16:22:04.855Z,7.50
2024-04-19T16:24:32.674Z,3.38
2024-04-19T16:27:01.980Z,4.68
2024-04-19T16:29:30.277Z,23.40
2024-04-19T16:31:58.076Z,2.78
2024-04-19T16:34:25.881Z,3.58
2024-04-19T16:36:53.799Z,2.25
2024-04-19T16:39:22.022Z,4.18
2024-04-19T16:41:49.783Z,4.47
2024-04-19T16:44:17.549Z,2.38
2024-04-19T16:46:45.407Z,13.40
2024-04-19T16:49:13.478Z,5.05
2024-04-19T16:51:41.864Z,31.92
2024-04-19T16:54:10.104Z,6.57
2024-04-19T16:56:43.230Z,2.70
2024-04-19T16:59:11.952Z,6.93
2024-04-19T17:01:40.403Z,2.78
2024-04-19T17:04:08.623Z,5.07
2024-04-19T17:06:39.290Z,7.30
2024-04-19T17:09:07.150Z,4.40
2024-04-19T17:11:35.465Z,4.43
2024-04-19T17:14:03.633Z,3.40
2024-04-19T17:16:31.463Z,1.88
2024-04-19T17:18:59.153Z,3.20
2024-04-19T17:21:27.046Z,2.40
2024-04-19T17:23:54.798Z,2.03
2024-04-19T17:26:23.014Z,2.17
2024-04-19T17:28:55.262Z,1.75
2024-04-19T17:31:23.412Z,3.08
2024-04-19T17:33:51.276Z,2.95
2024-04-19T17:36:19.948Z,3.03
2024-04-19T17:38:47.836Z,3.63
2024-04-19T17:41:15.704Z,2.58
2024-04-19T17:43:43.841Z,3.60
2024-04-19T17:46:11.717Z,4.30
2024-04-19T17:48:39.676Z,2.53
2024-04-19T17:51:07.602Z,11.63
2024-04-19T17:53:35.954Z,3.92
2024-04-19T17:56:04.767Z,6.38
2024-04-19T17:58:33.098Z,9.18
2024-04-19T18:01:01.910Z,3.28
2024-04-19T18:03:30.233Z,4.43
2024-04-19T18:05:58.592Z,13.60
2024-04-19T18:08:26.437Z,9.80
2024-04-19T18:10:54.795Z,7.40
2024-04-19T18:13:23.157Z,4.32
2024-04-19T18:15:50.973Z,8.00
2024-04-19T18:18:22.021Z,7.72
2024-04-19T18:20:50.261Z,7.70
2024-04-19T18:23:18.823Z,18.35
2024-04-19T18:25:49.195Z,18.80
2024-04-19T18:28:18.035Z,15.05
2024-04-19T18:30:47.198Z,5.38
2024-04-19T18:33:15.708Z,9.00
2024-04-19T18:35:45.270Z,10.45
2024-04-19T18:38:14.267Z,19.38
2024-04-19T18:40:47.379Z,19.50
2024-04-19T18:43:16.054Z,23.88
2024-04-19T18:45:47.902Z,22.38
2024-04-19T18:48:16.619Z,22.48
2024-04-19T18:50:46.337Z,27.25
2024-04-19T18:53:14.921Z,15.70
2024-04-19T18:55:43.650Z,11.00
2024-04-19T18:58:12.472Z,10.18
2024-04-19T19:00:41.497Z,14.35
2024-04-19T19:03:09.759Z,9.88
2024-04-19T19:05:38.746Z,11.68
2024-04-19T19:08:09.685Z,7.00
2024-04-19T19:10:38.294Z,9.20
2024-04-19T19:13:08.242Z,9.95
2024-04-19T19:15:36.239Z,9.00
2024-04-19T19:18:06.274Z,19.08
2024-04-19T19:20:34.132Z,23.77
2024-04-19T19:23:04.555Z,26.27
2024-04-19T19:25:33.592Z,26.10
2024-04-19T19:28:02.091Z,26.27
2024-04-19T19:30:30.446Z,20.63
2024-04-19T19:32:59.125Z,17.85
2024-04-19T19:35:27.708Z,30.88
2024-04-19T19:37:55.977Z,25.15
2024-04-19T19:40:23.974Z,5.50
2024-04-19T19:42:52.816Z,2.38
2024-04-19T19:45:20.922Z,5.60
2024-04-19T19:47:49.655Z,5.97
2024-04-19T19:50:18.917Z,8.00
2024-04-19T19:52:46.832Z,7.80
2024-04-19T19:55:15.751Z,52.03
2024-04-19T19:57:43.764Z,51.70
2024-04-19T20:00:32.757Z,24.13
2024-04-19T20:03:22.621Z,23.30
2024-04-19T20:05:52.766Z,13.05
2024-04-19T20:08:20.692Z,15.80
2024-04-19T20:10:49.287Z,9.50
2024-04-19T20:13:17.407Z,8.50
2024-04-19T20:15:47.836Z,8.98
2024-04-19T20:18:18.283Z,16.50
2024-04-19T20:20:51.317Z,14.55
2024-04-19T20:23:20.319Z,20.92
2024-04-19T20:25:48.682Z,16.02
2024-04-19T20:28:17.555Z,14.45
2024-04-19T20:30:45.669Z,13.07
2024-04-19T20:33:13.762Z,12.32
2024-04-19T20:35:41.933Z,19.48
2024-04-19T20:38:10.057Z,20.38
2024-04-19T20:40:39.134Z,14.60
2024-04-19T20:43:18.005Z,11.50
2024-04-19T20:45:48.608Z,7.78
2024-04-19T20:48:19.971Z,9.10
2024-04-19T20:50:51.611Z,6.90
2024-04-19T20:53:19.858Z,12.93
2024-04-19T20:55:48.140Z,15.32
2024-04-19T20:58:16.188Z,9.05
2024-04-19T21:00:44.278Z,9.95
2024-04-19T21:03:12.672Z,9.38
2024-04-19T21:05:41.267Z,9.50
2024-04-19T21:08:09.947Z,10.75
2024-04-19T21:10:38.011Z,16.55
2024-04-19T21:13:05.887Z,17.15
2024-04-19T21:15:33.762Z,9.60
2024-04-19T21:18:02.130Z,7.50
2024-04-19T21:20:32.431Z,9.25
2024-04-19T21:23:01.434Z,8.55
2024-04-19T21:25:29.145Z,5.47
2024-04-19T21:27:57.611Z,6.10
2024-04-19T21:30:25.755Z,5.05
2024-04-19T21:32:53.771Z,6.13
2024-04-19T21:35:21.668Z,7.75
2024-04-19T21:37:49.438Z,5.10
2024-04-19T21:40:18.959Z,5.00
2024-04-19T21:42:50.132Z,4.63
2024-04-19T21:45:18.744Z,4.05
2024-04-19T21:47:46.671Z,4.47
2024-04-19T21:50:14.791Z,2.55
2024-04-19T21:52:43.271Z,2.17
2024-04-19T21:55:11.131Z,4.63
2024-04-19T21:57:39.714Z,4.38
2024-04-19T22:00:07.877Z,4.57
2024-04-19T22:02:35.670Z,7.80
2024-04-19T22:05:03.499Z,5.57
2024-04-19T22:07:32.241Z,4.68
2024-04-19T22:10:00.623Z,9.60
2024-04-19T22:12:28.646Z,4.88
2024-04-19T22:14:56.527Z,3.33
2024-04-19T22:17:30.388Z,4.18
2024-04-19T22:19:59.421Z,2.85
2024-04-19T22:22:27.307Z,3.30
2024-04-19T22:24:55.263Z,29.25
2024-04-19T22:27:23.719Z,25.35
2024-04-19T22:29:55.662Z,17.10
2024-04-19T22:32:26.934Z,16.63
2024-04-19T22:34:55.209Z,22.00
2024-04-19T22:37:22.957Z,12.00
2024-04-19T22:39:53.893Z,11.40
2024-04-19T22:42:22.683Z,7.78
2024-04-19T22:44:50.516Z,5.60
2024-04-19T22:47:20.123Z,10.27
2024-04-19T22:49:49.117Z,7.70
2024-04-19T22:52:16.908Z,12.38
2024-04-19T22:54:44.824Z,6.80
2024-04-19T22:57:12.666Z,6.45
2024-04-19T22:59:40.547Z,10.20
2024-04-19T23:02:08.364Z,9.25
2024-04-19T23:04:36.380Z,6.45
2024-04-19T23:07:04.443Z,8.32
2024-04-19T23:09:32.310Z,5.93
2024-04-19T23:12:00.352Z,6.57
2024-04-19T23:14:28.361Z,10.27
2024-04-19T23:16:56.175Z,5.32
2024-04-19T23:19:23.963Z,6.55
2024-04-19T23:21:51.799Z,10.30
2024-04-19T23:24:19.598Z,9.98
2024-04-19T23:26:47.382Z,5.28
2024-04-19T23:29:15.154Z,5.72
2024-04-19T23:31:42.858Z,8.20
2024-04-19T23:34:11.087Z,7.03
2024-04-19T23:36:39.009Z,8.48
2024-04-19T23:39:06.929Z,6.47
2024-04-19T23:41:34.732Z,6.68
2024-04-19T23:44:04.559Z,7.53
2024-04-19T23:46:32.823Z,5.03
2024-04-19T23:49:00.783Z,7.78
2024-04-19T23:51:28.734Z,3.90
2024-04-19T23:54:01.682Z,5.75
2024-04-19T23:56:29.767Z,8.27
2024-04-19T23:58:57.539Z,5.22
